sensor_id;sensor_type;location;lat;lon;timestamp;temperature;humidity
74359;DHT22;62792;46.236;6.040;2023-12-14T00:03:16;20.60;52.50
74359;DHT22;62792;46.236;6.040;2023-12-14T00:08:19;20.60;52.30
74359;DHT22;62792;46.236;6.040;2023-12-14T00:13:23;20.50;52.30
74359;DHT22;62792;46.236;6.040;2023-12-14T00:18:26;20.60;52.60
74359;DHT22;62792;46.236;6.040;2023-12-14T00:23:29;20.60;52.30
74359;DHT22;62792;46.236;6.040;2023-12-14T00:28:33;20.60;52.30
74359;DHT22;62792;46.236;6.040;2023-12-14T00:33:36;20.60;52.50
74359;DHT22;62792;46.236;6.040;2023-12-14T00:38:39;20.50;52.80
74359;DHT22;62792;46.236;6.040;2023-12-14T00:43:43;20.60;52.50
74359;DHT22;62792;46.236;6.040;2023-12-14T00:48:47;20.60;52.50
74359;DHT22;62792;46.236;6.040;2023-12-14T00:53:50;20.50;52.30
74359;DHT22;62792;46.236;6.040;2023-12-14T00:58:54;20.50;52.40
74359;DHT22;62792;46.236;6.040;2023-12-14T01:03:57;20.60;52.40
74359;DHT22;62792;46.236;6.040;2023-12-14T01:09:01;20.60;52.50
74359;DHT22;62792;46.236;6.040;2023-12-14T01:14:05;20.60;52.30
74359;DHT22;62792;46.236;6.040;2023-12-14T01:19:08;20.50;52.40
74359;DHT22;62792;46.236;6.040;2023-12-14T01:24:11;20.50;52.50
74359;DHT22;62792;46.236;6.040;2023-12-14T01:29:15;20.40;52.50
74359;DHT22;62792;46.236;6.040;2023-12-14T01:34:18;20.50;52.60
74359;DHT22;62792;46.236;6.040;2023-12-14T01:39:21;20.60;52.50
74359;DHT22;62792;46.236;6.040;2023-12-14T01:44:25;20.50;52.60
74359;DHT22;62792;46.236;6.040;2023-12-14T01:49:28;20.60;52.60
74359;DHT22;62792;46.236;6.040;2023-12-14T01:54:31;20.60;52.70
74359;DHT22;62792;46.236;6.040;2023-12-14T01:59:36;20.50;52.70
74359;DHT22;62792;46.236;6.040;2023-12-14T02:04:39;20.50;52.50
74359;DHT22;62792;46.236;6.040;2023-12-14T02:09:42;20.60;52.70
74359;DHT22;62792;46.236;6.040;2023-12-14T02:14:48;20.50;52.70
74359;DHT22;62792;46.236;6.040;2023-12-14T02:19:51;20.50;52.40
74359;DHT22;62792;46.236;6.040;2023-12-14T02:24:55;20.50;52.50
74359;DHT22;62792;46.236;6.040;2023-12-14T02:29:58;20.50;52.60
74359;DHT22;62792;46.236;6.040;2023-12-14T02:35:01;20.50;52.60
74359;DHT22;62792;46.236;6.040;2023-12-14T02:40:06;20.50;52.90
74359;DHT22;62792;46.236;6.040;2023-12-14T02:45:10;20.50;52.60
74359;DHT22;62792;46.236;6.040;2023-12-14T02:50:13;20.50;52.60
74359;DHT22;62792;46.236;6.040;2023-12-14T02:55:17;20.50;52.70
74359;DHT22;62792;46.236;6.040;2023-12-14T03:00:20;20.60;52.60
74359;DHT22;62792;46.236;6.040;2023-12-14T03:05:23;20.50;52.70
74359;DHT22;62792;46.236;6.040;2023-12-14T03:10:27;20.50;52.60
74359;DHT22;62792;46.236;6.040;2023-12-14T03:15:30;20.50;52.60
74359;DHT22;62792;46.236;6.040;2023-12-14T03:20:33;20.50;52.60
74359;DHT22;62792;46.236;6.040;2023-12-14T03:25:37;20.50;52.50
74359;DHT22;62792;46.236;6.040;2023-12-14T03:30:40;20.50;52.70
74359;DHT22;62792;46.236;6.040;2023-12-14T03:35:43;20.50;52.80
74359;DHT22;62792;46.236;6.040;2023-12-14T03:40:49;20.40;52.40
74359;DHT22;62792;46.236;6.040;2023-12-14T03:45:52;20.40;52.70
74359;DHT22;62792;46.236;6.040;2023-12-14T03:50:55;20.40;52.50
74359;DHT22;62792;46.236;6.040;2023-12-14T03:55:59;20.50;52.50
74359;DHT22;62792;46.236;6.040;2023-12-14T04:01:03;20.50;52.30
74359;DHT22;62792;46.236;6.040;2023-12-14T04:06:06;20.50;52.60
74359;DHT22;62792;46.236;6.040;2023-12-14T04:11:11;20.40;52.60
74359;DHT22;62792;46.236;6.040;2023-12-14T04:16:14;20.50;52.80
74359;DHT22;62792;46.236;6.040;2023-12-14T04:21:17;20.40;52.70
74359;DHT22;62792;46.236;6.040;2023-12-14T04:26:21;20.50;52.80
74359;DHT22;62792;46.236;6.040;2023-12-14T04:31:25;20.40;52.70
74359;DHT22;62792;46.236;6.040;2023-12-14T04:36:28;20.40;52.80
74359;DHT22;62792;46.236;6.040;2023-12-14T04:41:33;20.40;52.70
74359;DHT22;62792;46.236;6.040;2023-12-14T04:46:36;20.40;52.70
74359;DHT22;62792;46.236;6.040;2023-12-14T04:51:39;20.40;52.80
74359;DHT22;62792;46.236;6.040;2023-12-14T04:56:46;20.40;52.50
74359;DHT22;62792;46.236;6.040;2023-12-14T05:01:49;20.40;52.70
74359;DHT22;62792;46.236;6.040;2023-12-14T05:06:52;20.40;52.90
74359;DHT22;62792;46.236;6.040;2023-12-14T05:11:56;20.40;52.80
74359;DHT22;62792;46.236;6.040;2023-12-14T05:16:59;20.40;52.80
74359;DHT22;62792;46.236;6.040;2023-12-14T05:22:02;20.40;52.70
74359;DHT22;62792;46.236;6.040;2023-12-14T05:27:08;20.40;52.80
74359;DHT22;62792;46.236;6.040;2023-12-14T05:32:10;20.50;53.50
74359;DHT22;62792;46.236;6.040;2023-12-14T05:37:14;20.70;53.30
74359;DHT22;62792;46.236;6.040;2023-12-14T05:42:19;20.80;53.20
74359;DHT22;62792;46.236;6.040;2023-12-14T05:47:25;20.90;52.90
74359;DHT22;62792;46.236;6.040;2023-12-14T05:52:28;21.10;52.70
74359;DHT22;62792;46.236;6.040;2023-12-14T05:57:32;21.10;52.50
74359;DHT22;62792;46.236;6.040;2023-12-14T06:02:35;21.10;52.50
74359;DHT22;62792;46.236;6.040;2023-12-14T06:07:40;21.10;52.60
74359;DHT22;62792;46.236;6.040;2023-12-14T06:12:44;21.10;52.50
74359;DHT22;62792;46.236;6.040;2023-12-14T06:17:47;21.10;52.50
74359;DHT22;62792;46.236;6.040;2023-12-14T06:22:51;21.20;52.60
74359;DHT22;62792;46.236;6.040;2023-12-14T06:27:55;21.10;52.40
74359;DHT22;62792;46.236;6.040;2023-12-14T06:32:58;21.10;52.30
74359;DHT22;62792;46.236;6.040;2023-12-14T06:38:01;21.20;52.50
74359;DHT22;62792;46.236;6.040;2023-12-14T06:43:06;21.20;52.30
74359;DHT22;62792;46.236;6.040;2023-12-14T06:48:09;21.30;52.40
74359;DHT22;62792;46.236;6.040;2023-12-14T06:53:12;21.20;52.30
74359;DHT22;62792;46.236;6.040;2023-12-14T06:58:18;21.30;52.20
74359;DHT22;62792;46.236;6.040;2023-12-14T07:03:21;21.30;52.30
74359;DHT22;62792;46.236;6.040;2023-12-14T07:08:24;21.30;53.10
74359;DHT22;62792;46.236;6.040;2023-12-14T07:13:29;21.30;53.10
74359;DHT22;62792;46.236;6.040;2023-12-14T07:18:32;21.30;53.10
74359;DHT22;62792;46.236;6.040;2023-12-14T07:23:35;21.20;53.10
74359;DHT22;62792;46.236;6.040;2023-12-14T07:28:42;21.20;52.90
74359;DHT22;62792;46.236;6.040;2023-12-14T07:33:45;21.10;52.80
74359;DHT22;62792;46.236;6.040;2023-12-14T07:38:48;21.10;52.80
74359;DHT22;62792;46.236;6.040;2023-12-14T07:43:56;21.10;52.50
74359;DHT22;62792;46.236;6.040;2023-12-14T07:49:01;21.10;52.70
74359;DHT22;62792;46.236;6.040;2023-12-14T07:54:04;21.20;52.70
74359;DHT22;62792;46.236;6.040;2023-12-14T07:59:08;21.20;52.60
74359;DHT22;62792;46.236;6.040;2023-12-14T08:04:11;21.20;52.70
74359;DHT22;62792;46.236;6.040;2023-12-14T08:09:14;21.20;52.60
74359;DHT22;62792;46.236;6.040;2023-12-14T08:14:19;21.20;52.70
74359;DHT22;62792;46.236;6.040;2023-12-14T08:19:22;21.50;53.60
74359;DHT22;62792;46.236;6.040;2023-12-14T08:24:24;21.70;53.90
74359;DHT22;62792;46.236;6.040;2023-12-14T08:29:29;21.80;55.20
74359;DHT22;62792;46.236;6.040;2023-12-14T08:34:32;22.10;56.00
74359;DHT22;62792;46.236;6.040;2023-12-14T08:39:35;22.20;56.20
74359;DHT22;62792;46.236;6.040;2023-12-14T08:44:39;22.30;56.20
74359;DHT22;62792;46.236;6.040;2023-12-14T08:49:43;22.10;55.50
74359;DHT22;62792;46.236;6.040;2023-12-14T08:54:47;21.90;54.80
74359;DHT22;62792;46.236;6.040;2023-12-14T08:59:51;21.90;54.30
74359;DHT22;62792;46.236;6.040;2023-12-14T09:04:54;21.90;53.60
74359;DHT22;62792;46.236;6.040;2023-12-14T09:09:57;22.00;53.40
74359;DHT22;62792;46.236;6.040;2023-12-14T09:15:02;22.10;53.40
74359;DHT22;62792;46.236;6.040;2023-12-14T09:20:06;22.20;53.30
74359;DHT22;62792;46.236;6.040;2023-12-14T09:25:10;22.20;53.40
74359;DHT22;62792;46.236;6.040;2023-12-14T09:30:14;22.30;53.30
74359;DHT22;62792;46.236;6.040;2023-12-14T09:35:19;22.40;53.30
74359;DHT22;62792;46.236;6.040;2023-12-14T09:40:22;22.40;52.80
74359;DHT22;62792;46.236;6.040;2023-12-14T09:45:28;22.50;52.90
74359;DHT22;62792;46.236;6.040;2023-12-14T09:50:31;22.50;52.70
74359;DHT22;62792;46.236;6.040;2023-12-14T09:55:34;22.40;52.70
74359;DHT22;62792;46.236;6.040;2023-12-14T10:00:39;22.20;52.70
74359;DHT22;62792;46.236;6.040;2023-12-14T10:05:43;22.20;52.50
74359;DHT22;62792;46.236;6.040;2023-12-14T10:10:46;22.10;52.50
74359;DHT22;62792;46.236;6.040;2023-12-14T10:15:52;22.10;52.60
74359;DHT22;62792;46.236;6.040;2023-12-14T10:20:55;22.00;52.40
74359;DHT22;62792;46.236;6.040;2023-12-14T10:25:58;22.00;52.40
74359;DHT22;62792;46.236;6.040;2023-12-14T10:31:02;21.90;52.40
74359;DHT22;62792;46.236;6.040;2023-12-14T10:36:07;21.90;52.50
74359;DHT22;62792;46.236;6.040;2023-12-14T10:41:11;21.90;52.60
74359;DHT22;62792;46.236;6.040;2023-12-14T10:46:17;21.90;52.50
74359;DHT22;62792;46.236;6.040;2023-12-14T10:51:23;21.90;52.50
74359;DHT22;62792;46.236;6.040;2023-12-14T10:56:26;21.80;52.60
74359;DHT22;62792;46.236;6.040;2023-12-14T11:01:32;21.80;52.50
74359;DHT22;62792;46.236;6.040;2023-12-14T11:06:36;21.80;52.50
74359;DHT22;62792;46.236;6.040;2023-12-14T11:11:40;21.70;52.50
74359;DHT22;62792;46.236;6.040;2023-12-14T11:16:47;21.80;52.70
74359;DHT22;62792;46.236;6.040;2023-12-14T11:21:56;21.80;52.70
74359;DHT22;62792;46.236;6.040;2023-12-14T11:27:12;21.70;52.60
74359;DHT22;62792;46.236;6.040;2023-12-14T11:32:17;21.70;52.40
74359;DHT22;62792;46.236;6.040;2023-12-14T11:37:23;21.70;52.20
74359;DHT22;62792;46.236;6.040;2023-12-14T11:42:26;21.70;52.40
74359;DHT22;62792;46.236;6.040;2023-12-14T11:47:34;21.60;52.60
74359;DHT22;62792;46.236;6.040;2023-12-14T11:52:38;21.60;52.50
74359;DHT22;62792;46.236;6.040;2023-12-14T11:57:45;21.60;52.50
74359;DHT22;62792;46.236;6.040;2023-12-14T12:02:49;21.60;52.40
74359;DHT22;62792;46.236;6.040;2023-12-14T12:07:56;21.60;52.40
74359;DHT22;62792;46.236;6.040;2023-12-14T12:13:01;21.60;52.40
74359;DHT22;62792;46.236;6.040;2023-12-14T12:18:06;21.60;52.50
74359;DHT22;62792;46.236;6.040;2023-12-14T12:23:10;21.60;52.40
74359;DHT22;62792;46.236;6.040;2023-12-14T12:28:14;21.50;52.20
74359;DHT22;62792;46.236;6.040;2023-12-14T12:33:18;21.70;53.10
74359;DHT22;62792;46.236;6.040;2023-12-14T12:38:22;21.90;52.40
74359;DHT22;62792;46.236;6.040;2023-12-14T12:43:25;21.90;52.30
74359;DHT22;62792;46.236;6.040;2023-12-14T12:48:29;21.80;52.80
74359;DHT22;62792;46.236;6.040;2023-12-14T12:53:32;22.00;52.90
74359;DHT22;62792;46.236;6.040;2023-12-14T12:58:35;22.10;52.70
74359;DHT22;62792;46.236;6.040;2023-12-14T13:03:41;22.10;52.50
74359;DHT22;62792;46.236;6.040;2023-12-14T13:08:44;22.20;52.80
74359;DHT22;62792;46.236;6.040;2023-12-14T13:13:47;22.20;52.80
74359;DHT22;62792;46.236;6.040;2023-12-14T13:18:51;22.30;52.80
74359;DHT22;62792;46.236;6.040;2023-12-14T13:23:55;22.40;52.60
74359;DHT22;62792;46.236;6.040;2023-12-14T13:28:59;22.30;52.80
74359;DHT22;62792;46.236;6.040;2023-12-14T14:42:13;22.60;52.60
74359;DHT22;62792;46.236;6.040;2023-12-14T14:47:16;22.70;52.20
74359;DHT22;62792;46.236;6.040;2023-12-14T14:52:19;22.70;51.70
74359;DHT22;62792;46.236;6.040;2023-12-14T14:57:24;22.80;51.80
74359;DHT22;62792;46.236;6.040;2023-12-14T15:02:27;22.90;51.40
74359;DHT22;62792;46.236;6.040;2023-12-14T15:07:30;23.00;51.60
74359;DHT22;62792;46.236;6.040;2023-12-14T15:12:34;23.00;51.00
74359;DHT22;62792;46.236;6.040;2023-12-14T15:17:37;23.10;50.70
74359;DHT22;62792;46.236;6.040;2023-12-14T15:22:40;23.30;50.90
74359;DHT22;62792;46.236;6.040;2023-12-14T15:27:45;23.30;49.90
74359;DHT22;62792;46.236;6.040;2023-12-14T15:32:48;23.20;50.00
74359;DHT22;62792;46.236;6.040;2023-12-14T15:37:51;23.20;49.80
74359;DHT22;62792;46.236;6.040;2023-12-14T15:42:55;23.10;49.60
74359;DHT22;62792;46.236;6.040;2023-12-14T15:47:58;23.10;49.70
74359;DHT22;62792;46.236;6.040;2023-12-14T15:53:01;23.00;49.70
74359;DHT22;62792;46.236;6.040;2023-12-14T15:58:07;22.90;49.70
74359;DHT22;62792;46.236;6.040;2023-12-14T16:03:13;23.10;49.60
74359;DHT22;62792;46.236;6.040;2023-12-14T16:08:16;23.30;49.50
74359;DHT22;62792;46.236;6.040;2023-12-14T16:13:20;23.30;49.30
74359;DHT22;62792;46.236;6.040;2023-12-14T16:18:23;23.20;49.70
74359;DHT22;62792;46.236;6.040;2023-12-14T16:23:26;23.40;49.60
74359;DHT22;62792;46.236;6.040;2023-12-14T16:28:30;23.40;49.40
74359;DHT22;62792;46.236;6.040;2023-12-14T16:33:36;23.50;49.90
74359;DHT22;62792;46.236;6.040;2023-12-14T16:38:40;23.50;49.30
74359;DHT22;62792;46.236;6.040;2023-12-14T16:43:48;23.40;49.00
74359;DHT22;62792;46.236;6.040;2023-12-14T16:48:51;23.50;49.20
74359;DHT22;62792;46.236;6.040;2023-12-14T16:53:54;23.60;49.00
74359;DHT22;62792;46.236;6.040;2023-12-14T16:58:59;23.50;49.30
74359;DHT22;62792;46.236;6.040;2023-12-14T17:04:02;23.50;48.80
74359;DHT22;62792;46.236;6.040;2023-12-14T17:09:05;23.50;49.00
74359;DHT22;62792;46.236;6.040;2023-12-14T17:14:10;23.40;48.80
74359;DHT22;62792;46.236;6.040;2023-12-14T17:19:14;23.20;48.90
74359;DHT22;62792;46.236;6.040;2023-12-14T17:24:18;23.30;48.60
74359;DHT22;62792;46.236;6.040;2023-12-14T17:29:22;23.10;49.10
74359;DHT22;62792;46.236;6.040;2023-12-14T17:34:25;23.00;49.40
74359;DHT22;62792;46.236;6.040;2023-12-14T17:39:28;22.90;49.20
74359;DHT22;62792;46.236;6.040;2023-12-14T17:44:33;22.80;49.20
74359;DHT22;62792;46.236;6.040;2023-12-14T17:49:36;22.80;49.40
74359;DHT22;62792;46.236;6.040;2023-12-14T17:54:39;22.70;49.50
74359;DHT22;62792;46.236;6.040;2023-12-14T17:59:43;22.60;49.50
74359;DHT22;62792;46.236;6.040;2023-12-14T18:04:46;22.60;49.50
74359;DHT22;62792;46.236;6.040;2023-12-14T18:09:49;22.50;49.70
74359;DHT22;62792;46.236;6.040;2023-12-14T18:14:54;22.50;49.60
74359;DHT22;62792;46.236;6.040;2023-12-14T18:19:57;22.40;49.60
74359;DHT22;62792;46.236;6.040;2023-12-14T18:25:00;22.30;49.60
74359;DHT22;62792;46.236;6.040;2023-12-14T18:30:06;22.30;49.70
74359;DHT22;62792;46.236;6.040;2023-12-14T18:35:10;22.20;49.70
74359;DHT22;62792;46.236;6.040;2023-12-14T18:40:13;22.20;49.80
74359;DHT22;62792;46.236;6.040;2023-12-14T18:45:19;22.10;50.10
74359;DHT22;62792;46.236;6.040;2023-12-14T18:50:22;22.10;49.80
74359;DHT22;62792;46.236;6.040;2023-12-14T18:55:25;22.10;49.70
74359;DHT22;62792;46.236;6.040;2023-12-14T19:00:29;22.00;50.20
74359;DHT22;62792;46.236;6.040;2023-12-14T19:05:32;22.00;50.20
74359;DHT22;62792;46.236;6.040;2023-12-14T19:10:37;22.00;50.20
74359;DHT22;62792;46.236;6.040;2023-12-14T19:15:41;22.00;50.30
74359;DHT22;62792;46.236;6.040;2023-12-14T19:20:44;21.90;50.50
74359;DHT22;62792;46.236;6.040;2023-12-14T19:25:47;21.90;50.50
74359;DHT22;62792;46.236;6.040;2023-12-14T19:30:51;21.90;50.30
74359;DHT22;62792;46.236;6.040;2023-12-14T19:35:55;21.90;50.50
74359;DHT22;62792;46.236;6.040;2023-12-14T19:40:58;21.80;50.20
74359;DHT22;62792;46.236;6.040;2023-12-14T19:46:02;21.70;50.50
74359;DHT22;62792;46.236;6.040;2023-12-14T19:51:06;21.80;50.40
74359;DHT22;62792;46.236;6.040;2023-12-14T19:56:09;21.80;50.40
74359;DHT22;62792;46.236;6.040;2023-12-14T20:01:13;21.70;50.30
74359;DHT22;62792;46.236;6.040;2023-12-14T20:06:19;21.70;50.20
74359;DHT22;62792;46.236;6.040;2023-12-14T20:11:22;21.70;50.20
74359;DHT22;62792;46.236;6.040;2023-12-14T20:16:29;21.60;50.30
74359;DHT22;62792;46.236;6.040;2023-12-14T20:21:34;21.70;50.30
74359;DHT22;62792;46.236;6.040;2023-12-14T20:26:39;21.70;50.40
74359;DHT22;62792;46.236;6.040;2023-12-14T20:31:43;21.50;50.10
74359;DHT22;62792;46.236;6.040;2023-12-14T20:36:46;21.60;50.30
74359;DHT22;62792;46.236;6.040;2023-12-14T20:41:50;21.60;50.30
74359;DHT22;62792;46.236;6.040;2023-12-14T20:46:54;21.50;50.30
74359;DHT22;62792;46.236;6.040;2023-12-14T20:51:57;21.50;50.20
74359;DHT22;62792;46.236;6.040;2023-12-14T20:57:00;21.50;50.20
74359;DHT22;62792;46.236;6.040;2023-12-14T21:02:05;21.50;50.30
74359;DHT22;62792;46.236;6.040;2023-12-14T21:07:10;21.50;50.20
74359;DHT22;62792;46.236;6.040;2023-12-14T21:12:14;21.50;50.30
74359;DHT22;62792;46.236;6.040;2023-12-14T21:17:18;21.40;50.10
74359;DHT22;62792;46.236;6.040;2023-12-14T21:22:21;21.40;50.00
74359;DHT22;62792;46.236;6.040;2023-12-14T21:27:24;21.40;50.10
74359;DHT22;62792;46.236;6.040;2023-12-14T21:32:47;21.30;50.10
74359;DHT22;62792;46.236;6.040;2023-12-14T21:37:51;21.40;50.00
74359;DHT22;62792;46.236;6.040;2023-12-14T21:42:54;21.30;49.80
74359;DHT22;62792;46.236;6.040;2023-12-14T21:47:58;21.30;50.10
74359;DHT22;62792;46.236;6.040;2023-12-14T21:53:01;21.30;50.20
74359;DHT22;62792;46.236;6.040;2023-12-14T21:58:04;21.30;50.00
74359;DHT22;62792;46.236;6.040;2023-12-14T22:03:09;21.30;50.00
74359;DHT22;62792;46.236;6.040;2023-12-14T22:08:12;21.30;50.10
74359;DHT22;62792;46.236;6.040;2023-12-14T22:13:15;21.20;49.90
74359;DHT22;62792;46.236;6.040;2023-12-14T22:18:19;21.20;49.70
74359;DHT22;62792;46.236;6.040;2023-12-14T22:23:22;21.10;49.90
74359;DHT22;62792;46.236;6.040;2023-12-14T22:28:25;21.20;49.90
74359;DHT22;62792;46.236;6.040;2023-12-14T22:33:29;21.20;49.90
74359;DHT22;62792;46.236;6.040;2023-12-14T22:38:32;21.20;49.70
74359;DHT22;62792;46.236;6.040;2023-12-14T22:43:35;21.10;49.70
74359;DHT22;62792;46.236;6.040;2023-12-14T22:48:39;21.10;50.10
74359;DHT22;62792;46.236;6.040;2023-12-14T22:53:44;21.10;49.90
74359;DHT22;62792;46.236;6.040;2023-12-14T22:58:47;21.20;49.80
74359;DHT22;62792;46.236;6.040;2023-12-14T23:03:52;21.10;49.90
74359;DHT22;62792;46.236;6.040;2023-12-14T23:08:55;21.10;50.00
74359;DHT22;62792;46.236;6.040;2023-12-14T23:13:58;21.00;50.00
74359;DHT22;62792;46.236;6.040;2023-12-14T23:19:03;21.10;49.80
74359;DHT22;62792;46.236;6.040;2023-12-14T23:24:06;21.10;49.80
74359;DHT22;62792;46.236;6.040;2023-12-14T23:29:09;21.10;49.80
74359;DHT22;62792;46.236;6.040;2023-12-14T23:34:14;21.10;49.80
74359;DHT22;62792;46.236;6.040;2023-12-14T23:39:16;21.10;49.50
74359;DHT22;62792;46.236;6.040;2023-12-14T23:44:19;21.00;50.00
74359;DHT22;62792;46.236;6.040;2023-12-14T23:49:24;21.00;49.70
74359;DHT22;62792;46.236;6.040;2023-12-14T23:54:27;21.00;49.70
74359;DHT22;62792;46.236;6.040;2023-12-14T23:59:29;21.00;49.80
